sensor_id;sensor_type;location;lat;lon;timestamp;temperature;humidity
9151;DHT22;4610;50.006;7.490;2022-11-06T00:00:38;6.60;99.90
9151;DHT22;4610;50.006;7.490;2022-11-06T00:03:06;6.70;99.90
9151;DHT22;4610;50.006;7.490;2022-11-06T00:05:39;6.60;99.90
9151;DHT22;4610;50.006;7.490;2022-11-06T00:08:28;6.50;99.90
9151;DHT22;4610;50.006;7.490;2022-11-06T00:10:55;6.50;99.90
9151;DHT22;4610;50.006;7.490;2022-11-06T00:13:22;6.50;99.90
9151;DHT22;4610;50.006;7.490;2022-11-06T00:15:49;6.50;99.90
9151;DHT22;4610;50.006;7.490;2022-11-06T00:18:16;6.50;99.90
9151;DHT22;4610;50.006;7.490;2022-11-06T00:20:44;6.40;99.90
9151;DHT22;4610;50.006;7.490;2022-11-06T00:23:11;6.50;99.90
9151;DHT22;4610;50.006;7.490;2022-11-06T00:25:39;6.60;99.90
9151;DHT22;4610;50.006;7.490;2022-11-06T00:28:06;6.60;99.90
9151;DHT22;4610;50.006;7.490;2022-11-06T00:30:33;6.60;99.90
9151;DHT22;4610;50.006;7.490;2022-11-06T00:33:00;6.60;99.90
9151;DHT22;4610;50.006;7.490;2022-11-06T00:35:27;6.50;99.90
9151;DHT22;4610;50.006;7.490;2022-11-06T00:37:55;6.60;99.90
9151;DHT22;4610;50.006;7.490;2022-11-06T00:40:22;6.60;99.90
9151;DHT22;4610;50.006;7.490;2022-11-06T00:42:53;6.60;99.90
9151;DHT22;4610;50.006;7.490;2022-11-06T00:45:20;6.60;99.90
9151;DHT22;4610;50.006;7.490;2022-11-06T00:47:47;6.60;99.90
9151;DHT22;4610;50.006;7.490;2022-11-06T00:50:14;6.50;99.90
9151;DHT22;4610;50.006;7.490;2022-11-06T00:52:42;6.50;99.90
9151;DHT22;4610;50.006;7.490;2022-11-06T00:55:10;6.40;99.90
9151;DHT22;4610;50.006;7.490;2022-11-06T00:57:37;6.40;99.90
9151;DHT22;4610;50.006;7.490;2022-11-06T01:00:04;6.20;99.90
9151;DHT22;4610;50.006;7.490;2022-11-06T01:02:31;6.10;99.90
9151;DHT22;4610;50.006;7.490;2022-11-06T01:04:58;6.10;99.90
9151;DHT22;4610;50.006;7.490;2022-11-06T01:07:25;6.20;99.90
9151;DHT22;4610;50.006;7.490;2022-11-06T01:09:52;6.20;99.90
9151;DHT22;4610;50.006;7.490;2022-11-06T01:12:20;6.20;99.90
9151;DHT22;4610;50.006;7.490;2022-11-06T01:14:46;6.20;99.90
9151;DHT22;4610;50.006;7.490;2022-11-06T01:17:13;6.20;99.90
9151;DHT22;4610;50.006;7.490;2022-11-06T01:19:40;6.20;99.90
9151;DHT22;4610;50.006;7.490;2022-11-06T01:22:07;6.20;99.90
9151;DHT22;4610;50.006;7.490;2022-11-06T01:24:34;6.20;99.90
9151;DHT22;4610;50.006;7.490;2022-11-06T01:27:01;6.20;99.90
9151;DHT22;4610;50.006;7.490;2022-11-06T01:29:29;6.20;99.90
9151;DHT22;4610;50.006;7.490;2022-11-06T01:31:56;6.10;99.90
9151;DHT22;4610;50.006;7.490;2022-11-06T01:34:23;6.10;99.90
9151;DHT22;4610;50.006;7.490;2022-11-06T01:36:49;6.00;99.90
9151;DHT22;4610;50.006;7.490;2022-11-06T01:39:16;5.90;99.90
9151;DHT22;4610;50.006;7.490;2022-11-06T01:41:46;5.80;99.90
9151;DHT22;4610;50.006;7.490;2022-11-06T01:47:23;5.50;99.90
9151;DHT22;4610;50.006;7.490;2022-11-06T01:49:53;5.60;99.90
9151;DHT22;4610;50.006;7.490;2022-11-06T01:52:21;5.80;99.90
9151;DHT22;4610;50.006;7.490;2022-11-06T01:54:51;5.90;99.90
9151;DHT22;4610;50.006;7.490;2022-11-06T01:57:19;5.90;99.90
9151;DHT22;4610;50.006;7.490;2022-11-06T01:59:46;6.00;99.90
9151;DHT22;4610;50.006;7.490;2022-11-06T02:02:15;6.00;99.90
9151;DHT22;4610;50.006;7.490;2022-11-06T02:04:46;6.00;99.90
9151;DHT22;4610;50.006;7.490;2022-11-06T02:07:14;6.10;99.90
9151;DHT22;4610;50.006;7.490;2022-11-06T02:09:42;6.10;99.90
9151;DHT22;4610;50.006;7.490;2022-11-06T02:12:14;6.10;99.90
9151;DHT22;4610;50.006;7.490;2022-11-06T02:14:51;6.10;99.90
9151;DHT22;4610;50.006;7.490;2022-11-06T02:17:27;6.10;99.90
9151;DHT22;4610;50.006;7.490;2022-11-06T02:20:02;6.00;99.90
9151;DHT22;4610;50.006;7.490;2022-11-06T02:25:39;5.80;99.90
9151;DHT22;4610;50.006;7.490;2022-11-06T02:28:17;5.60;99.90
9151;DHT22;4610;50.006;7.490;2022-11-06T02:30:47;5.50;99.90
9151;DHT22;4610;50.006;7.490;2022-11-06T02:33:18;5.50;99.90
9151;DHT22;4610;50.006;7.490;2022-11-06T02:35:51;5.50;99.90
9151;DHT22;4610;50.006;7.490;2022-11-06T02:38:22;5.60;99.90
9151;DHT22;4610;50.006;7.490;2022-11-06T02:40:53;5.70;99.90
9151;DHT22;4610;50.006;7.490;2022-11-06T02:43:27;5.70;99.90
9151;DHT22;4610;50.006;7.490;2022-11-06T02:45:57;5.70;99.90
9151;DHT22;4610;50.006;7.490;2022-11-06T02:48:28;5.70;99.90
9151;DHT22;4610;50.006;7.490;2022-11-06T02:50:59;5.70;99.90
9151;DHT22;4610;50.006;7.490;2022-11-06T02:53:29;5.70;99.90
9151;DHT22;4610;50.006;7.490;2022-11-06T02:56:01;5.80;99.90
9151;DHT22;4610;50.006;7.490;2022-11-06T02:58:35;5.80;99.90
9151;DHT22;4610;50.006;7.490;2022-11-06T03:01:07;5.80;99.90
9151;DHT22;4610;50.006;7.490;2022-11-06T03:03:40;5.80;99.90
9151;DHT22;4610;50.006;7.490;2022-11-06T03:06:12;5.70;99.90
9151;DHT22;4610;50.006;7.490;2022-11-06T03:08:45;5.60;99.90
9151;DHT22;4610;50.006;7.490;2022-11-06T03:11:16;5.40;99.90
9151;DHT22;4610;50.006;7.490;2022-11-06T03:13:51;5.30;99.90
9151;DHT22;4610;50.006;7.490;2022-11-06T03:16:28;5.40;99.90
9151;DHT22;4610;50.006;7.490;2022-11-06T03:19:03;5.50;99.90
9151;DHT22;4610;50.006;7.490;2022-11-06T03:21:35;5.50;99.90
9151;DHT22;4610;50.006;7.490;2022-11-06T03:24:09;5.60;99.90
9151;DHT22;4610;50.006;7.490;2022-11-06T03:26:39;5.60;99.90
9151;DHT22;4610;50.006;7.490;2022-11-06T03:29:14;5.50;99.90
9151;DHT22;4610;50.006;7.490;2022-11-06T03:31:48;5.50;99.90
9151;DHT22;4610;50.006;7.490;2022-11-06T03:34:22;5.40;99.90
9151;DHT22;4610;50.006;7.490;2022-11-06T03:36:54;5.20;99.90
9151;DHT22;4610;50.006;7.490;2022-11-06T03:39:26;5.10;99.90
9151;DHT22;4610;50.006;7.490;2022-11-06T03:42:00;5.10;99.90
9151;DHT22;4610;50.006;7.490;2022-11-06T03:44:29;5.00;99.90
9151;DHT22;4610;50.006;7.490;2022-11-06T03:47:01;5.00;99.90
9151;DHT22;4610;50.006;7.490;2022-11-06T03:49:30;4.90;99.90
9151;DHT22;4610;50.006;7.490;2022-11-06T03:52:01;4.90;99.90
9151;DHT22;4610;50.006;7.490;2022-11-06T03:54:30;4.90;99.90
9151;DHT22;4610;50.006;7.490;2022-11-06T03:57:01;4.90;99.90
9151;DHT22;4610;50.006;7.490;2022-11-06T03:59:37;4.90;99.90
9151;DHT22;4610;50.006;7.490;2022-11-06T04:02:04;4.90;99.90
9151;DHT22;4610;50.006;7.490;2022-11-06T04:04:36;4.90;99.90
9151;DHT22;4610;50.006;7.490;2022-11-06T04:07:06;4.90;99.90
9151;DHT22;4610;50.006;7.490;2022-11-06T04:09:36;4.90;99.90
9151;DHT22;4610;50.006;7.490;2022-11-06T04:12:23;5.00;99.90
9151;DHT22;4610;50.006;7.490;2022-11-06T04:15:11;5.10;99.90
9151;DHT22;4610;50.006;7.490;2022-11-06T04:17:40;5.00;99.90
9151;DHT22;4610;50.006;7.490;2022-11-06T04:20:09;5.00;99.90
9151;DHT22;4610;50.006;7.490;2022-11-06T04:22:44;4.90;99.90
9151;DHT22;4610;50.006;7.490;2022-11-06T04:25:24;4.80;99.90
9151;DHT22;4610;50.006;7.490;2022-11-06T04:28:18;4.80;99.90
9151;DHT22;4610;50.006;7.490;2022-11-06T04:30:56;4.90;99.90
9151;DHT22;4610;50.006;7.490;2022-11-06T04:33:27;4.80;99.90
9151;DHT22;4610;50.006;7.490;2022-11-06T04:36:04;4.80;99.90
9151;DHT22;4610;50.006;7.490;2022-11-06T04:38:37;4.70;99.90
9151;DHT22;4610;50.006;7.490;2022-11-06T04:41:12;4.70;99.90
9151;DHT22;4610;50.006;7.490;2022-11-06T04:43:44;4.70;99.90
9151;DHT22;4610;50.006;7.490;2022-11-06T04:46:19;4.70;99.90
9151;DHT22;4610;50.006;7.490;2022-11-06T04:48:47;4.70;99.90
9151;DHT22;4610;50.006;7.490;2022-11-06T04:51:18;4.70;99.90
9151;DHT22;4610;50.006;7.490;2022-11-06T04:53:48;4.70;99.90
9151;DHT22;4610;50.006;7.490;2022-11-06T04:56:21;4.70;99.90
9151;DHT22;4610;50.006;7.490;2022-11-06T04:58:48;4.70;99.90
9151;DHT22;4610;50.006;7.490;2022-11-06T05:01:16;4.60;99.90
9151;DHT22;4610;50.006;7.490;2022-11-06T05:03:43;4.50;99.90
9151;DHT22;4610;50.006;7.490;2022-11-06T05:06:10;4.50;99.90
9151;DHT22;4610;50.006;7.490;2022-11-06T05:08:37;4.40;99.90
9151;DHT22;4610;50.006;7.490;2022-11-06T05:11:04;4.30;99.90
9151;DHT22;4610;50.006;7.490;2022-11-06T05:13:31;4.30;99.90
9151;DHT22;4610;50.006;7.490;2022-11-06T05:15:59;4.30;99.90
9151;DHT22;4610;50.006;7.490;2022-11-06T05:18:27;4.30;99.90
9151;DHT22;4610;50.006;7.490;2022-11-06T05:20:57;4.20;99.90
9151;DHT22;4610;50.006;7.490;2022-11-06T05:23:38;4.20;99.90
9151;DHT22;4610;50.006;7.490;2022-11-06T05:26:05;4.20;99.90
9151;DHT22;4610;50.006;7.490;2022-11-06T05:28:32;4.20;99.90
9151;DHT22;4610;50.006;7.490;2022-11-06T05:30:59;4.10;99.90
9151;DHT22;4610;50.006;7.490;2022-11-06T05:33:27;4.20;99.90
9151;DHT22;4610;50.006;7.490;2022-11-06T05:35:54;4.20;99.90
9151;DHT22;4610;50.006;7.490;2022-11-06T05:38:21;4.20;99.90
9151;DHT22;4610;50.006;7.490;2022-11-06T05:40:48;4.30;99.90
9151;DHT22;4610;50.006;7.490;2022-11-06T05:43:14;4.20;99.90
9151;DHT22;4610;50.006;7.490;2022-11-06T05:45:41;4.20;99.90
9151;DHT22;4610;50.006;7.490;2022-11-06T05:48:08;4.10;99.90
9151;DHT22;4610;50.006;7.490;2022-11-06T05:50:36;4.10;99.90
9151;DHT22;4610;50.006;7.490;2022-11-06T05:53:03;4.20;99.90
9151;DHT22;4610;50.006;7.490;2022-11-06T05:55:30;4.20;99.90
9151;DHT22;4610;50.006;7.490;2022-11-06T05:57:56;4.10;99.90
9151;DHT22;4610;50.006;7.490;2022-11-06T06:00:23;4.10;99.90
9151;DHT22;4610;50.006;7.490;2022-11-06T06:02:50;4.00;99.90
9151;DHT22;4610;50.006;7.490;2022-11-06T06:05:17;4.00;99.90
9151;DHT22;4610;50.006;7.490;2022-11-06T06:07:45;4.00;99.90
9151;DHT22;4610;50.006;7.490;2022-11-06T06:10:12;4.00;99.90
9151;DHT22;4610;50.006;7.490;2022-11-06T06:12:39;3.90;99.90
9151;DHT22;4610;50.006;7.490;2022-11-06T06:15:06;4.00;99.90
9151;DHT22;4610;50.006;7.490;2022-11-06T06:17:33;3.90;99.90
9151;DHT22;4610;50.006;7.490;2022-11-06T06:20:00;3.90;99.90
9151;DHT22;4610;50.006;7.490;2022-11-06T06:22:27;3.80;99.90
9151;DHT22;4610;50.006;7.490;2022-11-06T06:24:55;3.70;99.90
9151;DHT22;4610;50.006;7.490;2022-11-06T06:27:21;3.60;99.90
9151;DHT22;4610;50.006;7.490;2022-11-06T06:29:50;3.50;99.90
9151;DHT22;4610;50.006;7.490;2022-11-06T06:32:17;3.50;99.90
9151;DHT22;4610;50.006;7.490;2022-11-06T06:34:43;3.60;99.90
9151;DHT22;4610;50.006;7.490;2022-11-06T06:37:10;3.70;99.90
9151;DHT22;4610;50.006;7.490;2022-11-06T06:39:37;3.80;99.90
9151;DHT22;4610;50.006;7.490;2022-11-06T06:42:05;3.90;99.90
9151;DHT22;4610;50.006;7.490;2022-11-06T06:44:32;4.00;99.90
9151;DHT22;4610;50.006;7.490;2022-11-06T06:46:59;3.90;99.90
9151;DHT22;4610;50.006;7.490;2022-11-06T06:49:26;4.00;99.90
9151;DHT22;4610;50.006;7.490;2022-11-06T06:51:52;4.00;99.90
9151;DHT22;4610;50.006;7.490;2022-11-06T06:54:19;4.00;99.90
9151;DHT22;4610;50.006;7.490;2022-11-06T06:56:47;4.10;99.90
9151;DHT22;4610;50.006;7.490;2022-11-06T06:59:15;4.00;99.90
9151;DHT22;4610;50.006;7.490;2022-11-06T07:01:42;4.00;99.90
9151;DHT22;4610;50.006;7.490;2022-11-06T07:04:09;4.00;99.90
9151;DHT22;4610;50.006;7.490;2022-11-06T07:06:36;4.20;99.90
9151;DHT22;4610;50.006;7.490;2022-11-06T07:09:03;4.40;99.90
9151;DHT22;4610;50.006;7.490;2022-11-06T07:11:29;4.60;99.90
9151;DHT22;4610;50.006;7.490;2022-11-06T07:13:56;4.80;99.90
9151;DHT22;4610;50.006;7.490;2022-11-06T07:16:24;5.00;99.90
9151;DHT22;4610;50.006;7.490;2022-11-06T07:18:52;5.20;99.90
9151;DHT22;4610;50.006;7.490;2022-11-06T07:21:19;5.30;99.90
9151;DHT22;4610;50.006;7.490;2022-11-06T07:23:45;5.50;99.90
9151;DHT22;4610;50.006;7.490;2022-11-06T07:26:12;5.60;99.90
9151;DHT22;4610;50.006;7.490;2022-11-06T07:28:39;5.70;99.90
9151;DHT22;4610;50.006;7.490;2022-11-06T07:31:07;5.70;99.90
9151;DHT22;4610;50.006;7.490;2022-11-06T07:33:35;5.80;99.90
9151;DHT22;4610;50.006;7.490;2022-11-06T07:36:04;5.80;99.90
9151;DHT22;4610;50.006;7.490;2022-11-06T07:38:32;5.80;99.90
9151;DHT22;4610;50.006;7.490;2022-11-06T07:41:01;5.90;99.90
9151;DHT22;4610;50.006;7.490;2022-11-06T07:43:28;5.90;99.90
9151;DHT22;4610;50.006;7.490;2022-11-06T07:45:57;5.90;99.90
9151;DHT22;4610;50.006;7.490;2022-11-06T07:48:25;5.90;99.90
9151;DHT22;4610;50.006;7.490;2022-11-06T07:50:53;6.00;99.90
9151;DHT22;4610;50.006;7.490;2022-11-06T07:53:20;6.10;99.90
9151;DHT22;4610;50.006;7.490;2022-11-06T07:55:47;6.60;99.90
9151;DHT22;4610;50.006;7.490;2022-11-06T07:58:14;6.80;99.90
9151;DHT22;4610;50.006;7.490;2022-11-06T08:00:45;6.80;99.90
9151;DHT22;4610;50.006;7.490;2022-11-06T08:03:12;6.80;99.90
9151;DHT22;4610;50.006;7.490;2022-11-06T08:05:39;6.80;99.90
9151;DHT22;4610;50.006;7.490;2022-11-06T08:08:07;6.80;99.90
9151;DHT22;4610;50.006;7.490;2022-11-06T08:10:35;6.90;99.90
9151;DHT22;4610;50.006;7.490;2022-11-06T08:13:05;7.30;99.90
9151;DHT22;4610;50.006;7.490;2022-11-06T08:15:31;8.90;99.90
9151;DHT22;4610;50.006;7.490;2022-11-06T08:17:58;10.50;99.90
9151;DHT22;4610;50.006;7.490;2022-11-06T08:20:25;11.90;99.90
9151;DHT22;4610;50.006;7.490;2022-11-06T08:22:56;12.90;99.90
9151;DHT22;4610;50.006;7.490;2022-11-06T08:25:25;13.50;99.90
9151;DHT22;4610;50.006;7.490;2022-11-06T08:27:53;13.80;99.90
9151;DHT22;4610;50.006;7.490;2022-11-06T08:30:20;13.40;99.90
9151;DHT22;4610;50.006;7.490;2022-11-06T08:32:47;12.50;99.90
9151;DHT22;4610;50.006;7.490;2022-11-06T08:35:14;11.60;99.90
9151;DHT22;4610;50.006;7.490;2022-11-06T08:37:41;10.90;99.90
9151;DHT22;4610;50.006;7.490;2022-11-06T08:40:09;10.60;99.90
9151;DHT22;4610;50.006;7.490;2022-11-06T08:42:38;10.80;99.90
9151;DHT22;4610;50.006;7.490;2022-11-06T08:45:06;11.10;99.90
9151;DHT22;4610;50.006;7.490;2022-11-06T08:47:33;11.50;99.90
9151;DHT22;4610;50.006;7.490;2022-11-06T08:50:00;11.90;99.90
9151;DHT22;4610;50.006;7.490;2022-11-06T08:52:27;12.10;99.90
9151;DHT22;4610;50.006;7.490;2022-11-06T08:54:53;12.10;99.90
9151;DHT22;4610;50.006;7.490;2022-11-06T08:57:20;12.20;99.90
9151;DHT22;4610;50.006;7.490;2022-11-06T08:59:48;12.30;99.90
9151;DHT22;4610;50.006;7.490;2022-11-06T09:02:15;12.50;99.90
9151;DHT22;4610;50.006;7.490;2022-11-06T09:04:42;12.70;99.90
9151;DHT22;4610;50.006;7.490;2022-11-06T09:07:09;13.00;99.90
9151;DHT22;4610;50.006;7.490;2022-11-06T09:09:36;13.20;99.90
9151;DHT22;4610;50.006;7.490;2022-11-06T09:12:03;13.40;99.90
9151;DHT22;4610;50.006;7.490;2022-11-06T09:14:29;13.40;99.90
9151;DHT22;4610;50.006;7.490;2022-11-06T09:16:57;13.40;99.90
9151;DHT22;4610;50.006;7.490;2022-11-06T09:19:24;13.00;99.90
9151;DHT22;4610;50.006;7.490;2022-11-06T09:21:51;12.60;99.90
9151;DHT22;4610;50.006;7.490;2022-11-06T09:24:18;12.40;99.90
9151;DHT22;4610;50.006;7.490;2022-11-06T09:26:45;12.20;99.90
9151;DHT22;4610;50.006;7.490;2022-11-06T09:29:11;12.60;99.90
9151;DHT22;4610;50.006;7.490;2022-11-06T09:31:38;13.10;99.90
9151;DHT22;4610;50.006;7.490;2022-11-06T09:34:06;13.30;99.90
9151;DHT22;4610;50.006;7.490;2022-11-06T09:36:34;13.50;99.90
9151;DHT22;4610;50.006;7.490;2022-11-06T09:39:01;13.80;99.90
9151;DHT22;4610;50.006;7.490;2022-11-06T09:41:36;13.90;99.90
9151;DHT22;4610;50.006;7.490;2022-11-06T09:44:27;13.90;99.90
9151;DHT22;4610;50.006;7.490;2022-11-06T09:46:57;13.90;99.90
9151;DHT22;4610;50.006;7.490;2022-11-06T09:49:29;14.00;99.90
9151;DHT22;4610;50.006;7.490;2022-11-06T09:52:00;13.80;99.90
9151;DHT22;4610;50.006;7.490;2022-11-06T09:54:33;13.70;99.90
9151;DHT22;4610;50.006;7.490;2022-11-06T09:57:12;13.70;99.90
9151;DHT22;4610;50.006;7.490;2022-11-06T09:59:41;13.70;99.90
9151;DHT22;4610;50.006;7.490;2022-11-06T10:02:20;13.70;99.90
9151;DHT22;4610;50.006;7.490;2022-11-06T10:04:56;13.60;99.90
9151;DHT22;4610;50.006;7.490;2022-11-06T10:07:28;13.30;99.90
9151;DHT22;4610;50.006;7.490;2022-11-06T10:09:55;13.20;99.90
9151;DHT22;4610;50.006;7.490;2022-11-06T10:12:27;13.00;99.90
9151;DHT22;4610;50.006;7.490;2022-11-06T10:45:17;11.40;99.90
9151;DHT22;4610;50.006;7.490;2022-11-06T10:47:47;11.30;99.90
9151;DHT22;4610;50.006;7.490;2022-11-06T10:50:17;11.20;99.90
9151;DHT22;4610;50.006;7.490;2022-11-06T10:52:50;11.20;99.90
9151;DHT22;4610;50.006;7.490;2022-11-06T10:58:20;11.00;99.90
9151;DHT22;4610;50.006;7.490;2022-11-06T11:00:49;10.90;99.90
9151;DHT22;4610;50.006;7.490;2022-11-06T11:03:21;10.90;99.90
9151;DHT22;4610;50.006;7.490;2022-11-06T11:05:49;10.90;99.90
9151;DHT22;4610;50.006;7.490;2022-11-06T11:08:36;11.00;99.90
9151;DHT22;4610;50.006;7.490;2022-11-06T11:11:15;10.90;99.90
9151;DHT22;4610;50.006;7.490;2022-11-06T11:13:43;11.00;99.90
9151;DHT22;4610;50.006;7.490;2022-11-06T11:16:14;10.90;99.90
9151;DHT22;4610;50.006;7.490;2022-11-06T11:18:43;10.80;99.90
9151;DHT22;4610;50.006;7.490;2022-11-06T11:21:19;10.70;99.90
9151;DHT22;4610;50.006;7.490;2022-11-06T11:24:03;10.80;99.90
9151;DHT22;4610;50.006;7.490;2022-11-06T11:26:32;10.80;99.90
9151;DHT22;4610;50.006;7.490;2022-11-06T11:29:01;10.90;99.90
9151;DHT22;4610;50.006;7.490;2022-11-06T11:31:38;11.20;99.90
9151;DHT22;4610;50.006;7.490;2022-11-06T11:34:13;11.30;99.90
9151;DHT22;4610;50.006;7.490;2022-11-06T11:36:50;11.30;99.90
9151;DHT22;4610;50.006;7.490;2022-11-06T11:39:20;11.20;99.90
9151;DHT22;4610;50.006;7.490;2022-11-06T11:41:48;11.10;99.90
9151;DHT22;4610;50.006;7.490;2022-11-06T11:44:16;11.00;99.90
9151;DHT22;4610;50.006;7.490;2022-11-06T11:46:48;10.90;99.90
9151;DHT22;4610;50.006;7.490;2022-11-06T11:49:27;10.80;99.90
9151;DHT22;4610;50.006;7.490;2022-11-06T11:51:56;10.50;99.90
9151;DHT22;4610;50.006;7.490;2022-11-06T11:54:24;10.60;99.90
9151;DHT22;4610;50.006;7.490;2022-11-06T11:56:53;10.60;99.90
9151;DHT22;4610;50.006;7.490;2022-11-06T11:59:24;10.80;99.90
9151;DHT22;4610;50.006;7.490;2022-11-06T12:01:55;11.00;99.90
9151;DHT22;4610;50.006;7.490;2022-11-06T12:04:24;11.00;99.90
9151;DHT22;4610;50.006;7.490;2022-11-06T12:06:55;10.90;99.90
9151;DHT22;4610;50.006;7.490;2022-11-06T12:09:24;10.90;99.90
9151;DHT22;4610;50.006;7.490;2022-11-06T12:11:53;10.90;99.90
9151;DHT22;4610;50.006;7.490;2022-11-06T12:14:30;10.80;99.90
9151;DHT22;4610;50.006;7.490;2022-11-06T12:17:03;10.70;99.90
9151;DHT22;4610;50.006;7.490;2022-11-06T12:19:35;10.60;99.90
9151;DHT22;4610;50.006;7.490;2022-11-06T12:22:08;10.50;99.90
9151;DHT22;4610;50.006;7.490;2022-11-06T12:24:42;10.40;99.90
9151;DHT22;4610;50.006;7.490;2022-11-06T12:27:15;10.40;99.90
9151;DHT22;4610;50.006;7.490;2022-11-06T12:29:46;10.30;99.90
9151;DHT22;4610;50.006;7.490;2022-11-06T12:32:21;10.20;99.90
9151;DHT22;4610;50.006;7.490;2022-11-06T12:34:54;10.20;99.90
9151;DHT22;4610;50.006;7.490;2022-11-06T12:37:31;10.20;99.90
9151;DHT22;4610;50.006;7.490;2022-11-06T12:40:08;10.10;99.90
9151;DHT22;4610;50.006;7.490;2022-11-06T12:42:38;10.20;99.90
9151;DHT22;4610;50.006;7.490;2022-11-06T12:45:10;10.20;99.90
9151;DHT22;4610;50.006;7.490;2022-11-06T12:47:46;10.20;99.90
9151;DHT22;4610;50.006;7.490;2022-11-06T12:50:24;10.10;99.90
9151;DHT22;4610;50.006;7.490;2022-11-06T12:53:04;10.10;99.90
9151;DHT22;4610;50.006;7.490;2022-11-06T12:55:38;10.10;99.90
9151;DHT22;4610;50.006;7.490;2022-11-06T12:58:29;10.10;99.90
9151;DHT22;4610;50.006;7.490;2022-11-06T13:01:07;10.10;99.90
9151;DHT22;4610;50.006;7.490;2022-11-06T13:03:51;10.10;99.90
9151;DHT22;4610;50.006;7.490;2022-11-06T13:06:24;10.10;99.90
9151;DHT22;4610;50.006;7.490;2022-11-06T13:08:59;10.10;99.90
9151;DHT22;4610;50.006;7.490;2022-11-06T13:11:35;10.00;99.90
9151;DHT22;4610;50.006;7.490;2022-11-06T13:14:13;10.00;99.90
9151;DHT22;4610;50.006;7.490;2022-11-06T13:16:47;10.10;99.90
9151;DHT22;4610;50.006;7.490;2022-11-06T13:19:23;10.10;99.90
9151;DHT22;4610;50.006;7.490;2022-11-06T13:22:11;10.10;99.90
9151;DHT22;4610;50.006;7.490;2022-11-06T13:24:45;9.90;99.90
9151;DHT22;4610;50.006;7.490;2022-11-06T13:27:21;9.90;99.90
9151;DHT22;4610;50.006;7.490;2022-11-06T13:29:50;9.90;99.90
9151;DHT22;4610;50.006;7.490;2022-11-06T13:32:20;9.80;99.90
9151;DHT22;4610;50.006;7.490;2022-11-06T13:34:53;9.90;99.90
9151;DHT22;4610;50.006;7.490;2022-11-06T13:37:29;9.90;99.90
9151;DHT22;4610;50.006;7.490;2022-11-06T13:40:01;9.80;99.90
9151;DHT22;4610;50.006;7.490;2022-11-06T13:42:36;9.70;99.90
9151;DHT22;4610;50.006;7.490;2022-11-06T13:45:06;9.70;99.90
9151;DHT22;4610;50.006;7.490;2022-11-06T13:47:37;9.70;99.90
9151;DHT22;4610;50.006;7.490;2022-11-06T13:50:13;9.70;99.90
9151;DHT22;4610;50.006;7.490;2022-11-06T13:52:48;9.70;99.90
9151;DHT22;4610;50.006;7.490;2022-11-06T13:55:22;9.80;99.90
9151;DHT22;4610;50.006;7.490;2022-11-06T13:58:21;9.80;99.90
9151;DHT22;4610;50.006;7.490;2022-11-06T14:00:57;9.80;99.90
9151;DHT22;4610;50.006;7.490;2022-11-06T14:03:43;9.80;99.90
9151;DHT22;4610;50.006;7.490;2022-11-06T14:06:18;9.70;99.90
9151;DHT22;4610;50.006;7.490;2022-11-06T14:08:49;9.70;99.90
9151;DHT22;4610;50.006;7.490;2022-11-06T14:11:18;9.60;99.90
9151;DHT22;4610;50.006;7.490;2022-11-06T14:13:58;9.50;99.90
9151;DHT22;4610;50.006;7.490;2022-11-06T14:16:28;9.50;99.90
9151;DHT22;4610;50.006;7.490;2022-11-06T14:18:58;9.40;99.90
9151;DHT22;4610;50.006;7.490;2022-11-06T14:21:46;9.40;99.90
9151;DHT22;4610;50.006;7.490;2022-11-06T14:24:15;9.30;99.90
9151;DHT22;4610;50.006;7.490;2022-11-06T14:26:44;9.20;99.90
9151;DHT22;4610;50.006;7.490;2022-11-06T14:29:42;9.20;99.90
9151;DHT22;4610;50.006;7.490;2022-11-06T14:32:42;9.00;99.90
9151;DHT22;4610;50.006;7.490;2022-11-06T14:38:35;9.00;99.90
9151;DHT22;4610;50.006;7.490;2022-11-06T14:44:46;9.00;99.90
9151;DHT22;4610;50.006;7.490;2022-11-06T14:47:30;8.90;99.90
9151;DHT22;4610;50.006;7.490;2022-11-06T14:50:04;8.90;99.90
9151;DHT22;4610;50.006;7.490;2022-11-06T14:52:43;8.80;99.90
9151;DHT22;4610;50.006;7.490;2022-11-06T14:55:25;8.80;99.90
9151;DHT22;4610;50.006;7.490;2022-11-06T14:57:54;9.10;99.90
9151;DHT22;4610;50.006;7.490;2022-11-06T15:00:42;9.10;99.90
9151;DHT22;4610;50.006;7.490;2022-11-06T15:03:19;9.00;99.90
9151;DHT22;4610;50.006;7.490;2022-11-06T15:05:46;9.00;99.90
9151;DHT22;4610;50.006;7.490;2022-11-06T15:08:56;9.00;99.90
9151;DHT22;4610;50.006;7.490;2022-11-06T15:11:49;9.10;99.90
9151;DHT22;4610;50.006;7.490;2022-11-06T15:14:58;9.10;99.90
9151;DHT22;4610;50.006;7.490;2022-11-06T15:17:31;9.10;99.90
9151;DHT22;4610;50.006;7.490;2022-11-06T15:20:19;9.10;99.90
9151;DHT22;4610;50.006;7.490;2022-11-06T15:23:09;9.10;99.90
9151;DHT22;4610;50.006;7.490;2022-11-06T15:25:46;9.10;99.90
9151;DHT22;4610;50.006;7.490;2022-11-06T15:28:17;9.00;99.90
9151;DHT22;4610;50.006;7.490;2022-11-06T15:30:48;9.00;99.90
9151;DHT22;4610;50.006;7.490;2022-11-06T15:33:21;8.90;99.90
9151;DHT22;4610;50.006;7.490;2022-11-06T15:35:51;8.90;99.90
9151;DHT22;4610;50.006;7.490;2022-11-06T15:38:22;8.90;99.90
9151;DHT22;4610;50.006;7.490;2022-11-06T15:40:52;8.80;99.90
9151;DHT22;4610;50.006;7.490;2022-11-06T15:43:29;9.20;99.90
9151;DHT22;4610;50.006;7.490;2022-11-06T15:46:15;9.30;99.90
9151;DHT22;4610;50.006;7.490;2022-11-06T15:48:43;9.20;99.90
9151;DHT22;4610;50.006;7.490;2022-11-06T15:51:21;9.10;99.90
9151;DHT22;4610;50.006;7.490;2022-11-06T15:53:48;8.90;99.90
9151;DHT22;4610;50.006;7.490;2022-11-06T15:56:18;8.80;99.90
9151;DHT22;4610;50.006;7.490;2022-11-06T15:59:03;8.80;99.90
9151;DHT22;4610;50.006;7.490;2022-11-06T16:01:31;8.80;99.90
9151;DHT22;4610;50.006;7.490;2022-11-06T16:04:02;8.80;99.90
9151;DHT22;4610;50.006;7.490;2022-11-06T16:06:30;8.70;99.90
9151;DHT22;4610;50.006;7.490;2022-11-06T16:08:58;8.70;99.90
9151;DHT22;4610;50.006;7.490;2022-11-06T16:11:27;8.70;99.90
9151;DHT22;4610;50.006;7.490;2022-11-06T16:13:54;8.70;99.90
9151;DHT22;4610;50.006;7.490;2022-11-06T16:16:34;8.60;99.90
9151;DHT22;4610;50.006;7.490;2022-11-06T16:19:02;9.20;99.90
9151;DHT22;4610;50.006;7.490;2022-11-06T16:21:33;9.10;99.90
9151;DHT22;4610;50.006;7.490;2022-11-06T16:24:03;8.90;99.90
9151;DHT22;4610;50.006;7.490;2022-11-06T16:26:38;8.80;99.90
9151;DHT22;4610;50.006;7.490;2022-11-06T16:29:10;8.70;99.90
9151;DHT22;4610;50.006;7.490;2022-11-06T16:31:38;8.60;99.90
9151;DHT22;4610;50.006;7.490;2022-11-06T16:34:06;8.50;99.90
9151;DHT22;4610;50.006;7.490;2022-11-06T16:36:50;8.50;99.90
9151;DHT22;4610;50.006;7.490;2022-11-06T16:39:42;8.40;99.90
9151;DHT22;4610;50.006;7.490;2022-11-06T16:42:29;8.40;99.90
9151;DHT22;4610;50.006;7.490;2022-11-06T16:45:07;8.30;99.90
9151;DHT22;4610;50.006;7.490;2022-11-06T16:47:34;8.20;99.90
9151;DHT22;4610;50.006;7.490;2022-11-06T16:50:01;8.20;99.90
9151;DHT22;4610;50.006;7.490;2022-11-06T16:52:32;8.20;99.90
9151;DHT22;4610;50.006;7.490;2022-11-06T16:55:02;8.20;99.90
9151;DHT22;4610;50.006;7.490;2022-11-06T16:57:34;8.30;99.90
9151;DHT22;4610;50.006;7.490;2022-11-06T17:00:04;8.30;99.90
9151;DHT22;4610;50.006;7.490;2022-11-06T17:02:34;8.20;99.90
9151;DHT22;4610;50.006;7.490;2022-11-06T17:05:11;8.20;99.90
9151;DHT22;4610;50.006;7.490;2022-11-06T17:07:39;8.20;99.90
9151;DHT22;4610;50.006;7.490;2022-11-06T17:10:30;8.20;99.90
9151;DHT22;4610;50.006;7.490;2022-11-06T17:13:14;8.20;99.90
9151;DHT22;4610;50.006;7.490;2022-11-06T17:15:42;8.10;99.90
9151;DHT22;4610;50.006;7.490;2022-11-06T17:18:14;8.10;99.90
9151;DHT22;4610;50.006;7.490;2022-11-06T17:20:45;8.10;99.90
9151;DHT22;4610;50.006;7.490;2022-11-06T17:23:13;8.10;99.90
9151;DHT22;4610;50.006;7.490;2022-11-06T17:25:39;8.30;99.90
9151;DHT22;4610;50.006;7.490;2022-11-06T17:28:09;8.40;99.90